Time;durP1;ratioP1;P1;durP2;ratioP2;P2;SDS_P1;SDS_P2;PMS_P1;PMS_P2;Temp;Humidity;BMP_temperature;BMP_pressure;BME280_temperature;BME280_humidity;BME280_pressure;Samples;Min_cycle;Max_cycle;Signal;HPM_P1;HPM_P2
2023/01/10 00:01:07;;;;;;;;;;;;;;;9.91;59.14;100229.50;4939064;28;6772;-72
2023/01/10 00:03:33;;;;;;;;;;;;;;;9.91;59.30;100242.28;4987358;28;6993;-72
2023/01/10 00:05:59;;;;;;;;;;;;;;;9.92;58.69;100238.91;4943850;28;6979;-72
2023/01/10 00:08:24;;;;;;;;;;;;;;;9.92;59.20;100249.16;4980849;28;6968;-72
2023/01/10 00:10:50;;;;;;;;;;;;;;;9.93;59.41;100249.25;4956872;28;6780;-72
2023/01/10 00:13:23;;;;;;;;;;;;;;;9.94;59.01;100250.09;4957834;28;6771;-72
2023/01/10 00:15:54;;;;;;;;;;;;;;;9.94;58.71;100248.44;4960633;28;7134;-72
2023/01/10 00:18:21;;;;;;;;;;;;;;;9.93;58.92;100245.78;4959931;28;6784;-72
2023/01/10 00:20:48;;;;;;;;;;;;;;;9.91;58.42;100253.41;4958498;28;6788;-72
2023/01/10 00:23:14;;;;;;;;;;;;;;;9.87;57.91;100259.19;4978800;28;6982;-72
2023/01/10 00:25:41;;;;;;;;;;;;;;;9.81;58.78;100254.66;4974631;28;6982;-72
2023/01/10 00:28:18;;;;;;;;;;;;;;;9.76;58.01;100268.91;4959558;28;7284;-72
2023/01/10 00:31:26;;;;;;;;;;;;;;;9.70;58.28;100268.59;4957237;28;6842;-72
2023/01/10 00:33:45;;;;;;;;;;;;;;;9.63;58.22;100272.53;4957391;28;6839;-72
2023/01/10 00:36:10;;;;;;;;;;;;;;;9.58;58.77;100269.75;4960016;28;6961;-72
2023/01/10 00:38:36;;;;;;;;;;;;;;;9.52;57.58;100278.81;4958152;28;7868;-72
2023/01/10 00:43:55;;;;;;;;;;;;;;;9.47;58.28;100296.50;4973879;28;6776;-72
2023/01/10 00:43:57;;;;;;;;;;;;;;;9.44;58.18;100301.44;4956639;28;7119;-72
2023/01/10 00:46:23;;;;;;;;;;;;;;;9.39;58.60;100308.88;4957299;28;6951;-72
2023/01/10 00:48:49;;;;;;;;;;;;;;;9.41;59.09;100314.06;4954424;28;7157;-72
2023/01/10 00:51:14;;;;;;;;;;;;;;;9.39;59.08;100308.00;4975081;28;6768;-72
2023/01/10 00:53:40;;;;;;;;;;;;;;;9.38;58.81;100316.47;4947570;28;7701;-72
2023/01/10 00:56:06;;;;;;;;;;;;;;;9.38;59.10;100321.59;4954698;28;6784;-72
2023/01/10 00:58:32;;;;;;;;;;;;;;;9.36;58.68;100323.16;4943884;28;6808;-72
2023/01/10 01:00:58;;;;;;;;;;;;;;;9.31;58.81;100321.28;4936914;28;6800;-72
2023/01/10 01:03:24;;;;;;;;;;;;;;;9.28;58.67;100328.78;4950843;28;6880;-72
2023/01/10 01:05:50;;;;;;;;;;;;;;;9.25;58.16;100343.97;4946105;28;6983;-72
2023/01/10 01:08:19;;;;;;;;;;;;;;;9.22;57.87;100345.47;4945892;28;7031;-72
2023/01/10 01:10:45;;;;;;;;;;;;;;;9.18;58.60;100354.69;4942036;28;6976;-72
2023/01/10 01:13:18;;;;;;;;;;;;;;;9.12;58.50;100354.34;4961560;28;6788;-72
2023/01/10 01:15:44;;;;;;;;;;;;;;;9.12;58.56;100362.88;4959509;28;6800;-72
2023/01/10 01:18:14;;;;;;;;;;;;;;;9.12;59.01;100362.88;4948874;28;6967;-72
2023/01/10 01:20:41;;;;;;;;;;;;;;;9.12;58.62;100364.59;4939639;28;7287;-72
2023/01/10 01:23:08;;;;;;;;;;;;;;;9.11;58.14;100375.59;4948883;28;9220;-72
2023/01/10 01:25:33;;;;;;;;;;;;;;;9.09;58.10;100377.22;4954925;28;6988;-72
2023/01/10 01:27:59;;;;;;;;;;;;;;;9.06;59.17;100375.34;4947214;28;7094;-72
2023/01/10 01:30:25;;;;;;;;;;;;;;;9.08;59.01;100395.88;4945956;28;7042;-72
2023/01/10 01:32:50;;;;;;;;;;;;;;;9.05;58.70;100388.06;4963378;28;7232;-72
2023/01/10 01:35:16;;;;;;;;;;;;;;;9.02;58.11;100384.53;4956541;28;6918;-72
2023/01/10 01:37:42;;;;;;;;;;;;;;;9.00;58.68;100396.38;4945395;28;7045;-72
2023/01/10 01:40:16;;;;;;;;;;;;;;;8.99;58.56;100397.16;4957470;28;6777;-72
2023/01/10 01:42:42;;;;;;;;;;;;;;;8.96;57.60;100404.66;4945741;28;7311;-72
2023/01/10 01:45:08;;;;;;;;;;;;;;;8.94;58.76;100402.81;4957490;28;6961;-72
2023/01/10 01:47:46;;;;;;;;;;;;;;;8.91;58.34;100406.09;4946297;28;6937;-72
2023/01/10 01:50:40;;;;;;;;;;;;;;;8.90;58.05;100404.34;4955896;28;7195;-72
2023/01/10 01:53:34;;;;;;;;;;;;;;;8.89;58.81;100412.81;4955348;28;7068;-72
2023/01/10 01:56:12;;;;;;;;;;;;;;;8.92;57.93;100418.06;4941129;28;7305;-72
2023/01/10 01:58:51;;;;;;;;;;;;;;;8.95;57.79;100425.91;4972461;28;7018;-72
2023/01/10 02:01:20;;;;;;;;;;;;;;;8.96;57.92;100430.22;4961677;28;7012;-72
2023/01/10 02:03:54;;;;;;;;;;;;;;;8.96;58.95;100430.22;4974380;28;7056;-72
2023/01/10 02:06:23;;;;;;;;;;;;;;;8.97;57.95;100431.97;4988461;28;6884;-72
2023/01/10 02:09:04;;;;;;;;;;;;;;;8.96;58.30;100437.03;4987096;28;7163;-72
2023/01/10 02:11:30;;;;;;;;;;;;;;;8.95;58.01;100442.94;4973965;28;6823;-72
2023/01/10 02:13:58;;;;;;;;;;;;;;;8.93;58.78;100455.63;4987070;28;7085;-72
2023/01/10 02:16:23;;;;;;;;;;;;;;;8.93;58.47;100459.84;4957989;28;7142;-72
2023/01/10 02:18:49;;;;;;;;;;;;;;;8.93;57.32;100454.72;4979137;28;7221;-72
2023/01/10 02:21:36;;;;;;;;;;;;;;;8.93;58.59;100463.28;4986676;28;6792;-72
2023/01/10 02:24:30;;;;;;;;;;;;;;;8.93;58.77;100468.41;4955445;28;7214;-72
2023/01/10 02:27:21;;;;;;;;;;;;;;;8.98;57.61;100468.66;4964624;28;7259;-72
2023/01/10 02:30:27;;;;;;;;;;;;;;;9.00;58.24;100461.94;4987315;28;6800;-72
2023/01/10 02:33:33;;;;;;;;;;;;;;;9.00;57.78;100469.63;4960194;28;11246;-72
2023/01/10 02:36:23;;;;;;;;;;;;;;;8.98;58.42;100474.66;4986370;28;6880;-72
2023/01/10 02:39:19;;;;;;;;;;;;;;;8.96;58.10;100471.13;4957636;28;7937;-72
2023/01/10 02:41:56;;;;;;;;;;;;;;;8.94;58.05;100476.97;4956916;28;6828;-72
2023/01/10 02:44:57;;;;;;;;;;;;;;;8.92;58.22;100476.88;4975345;28;7091;-72
2023/01/10 02:47:22;;;;;;;;;;;;;;;8.89;57.76;100482.69;4961068;28;7027;-71
2023/01/10 02:49:51;;;;;;;;;;;;;;;8.88;57.82;100475.81;4960647;28;6780;-72
2023/01/10 02:52:26;;;;;;;;;;;;;;;8.88;57.27;100478.38;4973951;28;8527;-72
2023/01/10 02:55:00;;;;;;;;;;;;;;;8.89;57.57;100479.25;4972154;28;7277;-72
2023/01/10 02:57:50;;;;;;;;;;;;;;;8.88;57.77;100483.47;4986665;28;6974;-72
2023/01/10 03:00:26;;;;;;;;;;;;;;;8.84;57.70;100473.00;4956923;28;7126;-72
2023/01/10 03:03:32;;;;;;;;;;;;;;;8.86;58.48;100477.41;4953775;28;6816;-72
2023/01/10 03:06:50;;;;;;;;;;;;;;;8.89;57.16;100479.25;4968094;28;6824;-71
2023/01/10 03:09:43;;;;;;;;;;;;;;;8.88;57.62;100477.47;4930187;28;7069;-72
2023/01/10 03:12:20;;;;;;;;;;;;;;;8.87;57.37;100485.94;4986763;28;7015;-72
2023/01/10 03:14:49;;;;;;;;;;;;;;;8.86;58.10;100487.63;4986659;28;6804;-72
2023/01/10 03:17:18;;;;;;;;;;;;;;;8.88;58.06;100490.25;4960580;28;6928;-72
2023/01/10 03:19:53;;;;;;;;;;;;;;;8.89;57.87;100503.13;4957173;28;6820;-72
2023/01/10 03:22:19;;;;;;;;;;;;;;;8.91;58.08;100507.44;4958627;28;7070;-72
2023/01/10 03:24:50;;;;;;;;;;;;;;;8.88;57.22;100506.47;4961780;28;6990;-72
2023/01/10 03:27:31;;;;;;;;;;;;;;;8.87;56.93;100516.59;4983611;28;7000;-72
2023/01/10 03:30:43;;;;;;;;;;;;;;;8.85;57.17;100524.22;4983874;28;7322;-72
2023/01/10 03:33:14;;;;;;;;;;;;;;;8.84;57.66;100531.78;4944609;28;11293;-72
2023/01/10 03:36:04;;;;;;;;;;;;;;;8.85;57.87;100533.53;4965141;28;6819;-72
2023/01/10 03:39:14;;;;;;;;;;;;;;;8.89;57.05;100536.34;4974857;28;6993;-71
2023/01/10 03:41:56;;;;;;;;;;;;;;;8.90;57.01;100532.16;4948899;28;7336;-71
2023/01/10 03:45:08;;;;;;;;;;;;;;;8.91;56.92;100545.78;4959974;28;7218;-70
2023/01/10 03:47:45;;;;;;;;;;;;;;;8.89;57.06;100558.50;4956205;28;6812;-72
2023/01/10 03:50:28;;;;;;;;;;;;;;;8.87;57.84;100552.41;4955205;28;6982;-72
2023/01/10 03:52:55;;;;;;;;;;;;;;;8.86;57.30;100548.06;4976014;28;6984;-71
2023/01/10 03:55:27;;;;;;;;;;;;;;;8.86;57.25;100555.75;4983801;28;7386;-72
2023/01/10 03:57:53;;;;;;;;;;;;;;;8.84;57.88;100557.34;4955690;28;7058;-71
2023/01/10 04:00:20;;;;;;;;;;;;;;;8.81;56.96;100554.63;4987089;28;6796;-71
2023/01/10 04:02:45;;;;;;;;;;;;;;;8.79;57.81;100558.72;4983370;28;6945;-72
2023/01/10 04:05:11;;;;;;;;;;;;;;;8.74;58.11;100564.47;4958424;28;7399;-70
2023/01/10 04:07:37;;;;;;;;;;;;;;;8.73;58.04;100564.38;4958707;28;6780;-71
2023/01/10 04:10:05;;;;;;;;;;;;;;;8.68;58.14;100560.69;4955986;28;7206;-72
2023/01/10 04:12:30;;;;;;;;;;;;;;;8.66;57.96;100572.50;4971107;28;7942;-70
2023/01/10 04:14:56;;;;;;;;;;;;;;;8.66;57.93;100570.81;4990484;28;7154;-71
2023/01/10 04:17:22;;;;;;;;;;;;;;;8.68;57.82;100573.47;4955255;28;6910;-71
2023/01/10 04:19:47;;;;;;;;;;;;;;;8.67;57.08;100570.00;4958202;28;6939;-71
2023/01/10 04:22:13;;;;;;;;;;;;;;;8.67;58.21;100569.16;4957623;28;6848;-71
2023/01/10 04:24:39;;;;;;;;;;;;;;;8.70;58.52;100579.53;4962810;28;6765;-71
2023/01/10 04:27:06;;;;;;;;;;;;;;;8.71;57.40;100582.19;4957232;28;7086;-72
2023/01/10 04:29:31;;;;;;;;;;;;;;;8.70;58.28;100592.31;4960002;28;6928;-72
2023/01/10 04:31:57;;;;;;;;;;;;;;;8.70;57.43;100598.31;4991597;28;6776;-71
2023/01/10 04:34:23;;;;;;;;;;;;;;;8.68;56.92;100586.25;4959818;28;6938;-71
2023/01/10 04:36:49;;;;;;;;;;;;;;;8.68;57.22;100586.25;4952854;28;7431;-70
2023/01/10 04:39:15;;;;;;;;;;;;;;;8.66;57.57;100585.28;4954460;28;7540;-72
2023/01/10 04:41:41;;;;;;;;;;;;;;;8.65;56.77;100586.94;4957955;28;6812;-72
2023/01/10 04:44:06;;;;;;;;;;;;;;;8.64;57.48;100587.72;4959685;28;6832;-71
2023/01/10 04:46:33;;;;;;;;;;;;;;;8.61;57.51;100587.56;4962076;28;7004;-72
2023/01/10 04:48:58;;;;;;;;;;;;;;;8.63;57.79;100585.97;4953631;28;7416;-71
2023/01/10 04:51:25;;;;;;;;;;;;;;;8.63;57.27;100593.63;4990663;28;7399;-71
2023/01/10 04:53:52;;;;;;;;;;;;;;;8.60;57.38;100591.78;4986345;28;6968;-71
2023/01/10 04:56:20;;;;;;;;;;;;;;;8.57;57.97;100591.59;4955780;28;6792;-71
2023/01/10 04:58:46;;;;;;;;;;;;;;;8.58;57.27;100595.03;4971995;28;6843;-71
2023/01/10 05:01:20;;;;;;;;;;;;;;;8.56;57.66;100597.50;4983008;28;7647;-71
2023/01/10 05:03:48;;;;;;;;;;;;;;;8.54;57.65;100587.97;4955346;28;7039;-72
2023/01/10 05:06:15;;;;;;;;;;;;;;;8.54;57.72;100587.97;4957149;28;7136;-71
2023/01/10 05:08:42;;;;;;;;;;;;;;;8.53;58.00;100601.56;4985209;28;6788;-72
2023/01/10 05:11:07;;;;;;;;;;;;;;;8.54;58.25;100614.41;4957260;28;7518;-70
2023/01/10 05:13:33;;;;;;;;;;;;;;;8.53;58.13;100616.88;4936839;28;7023;-71
2023/01/10 05:15:59;;;;;;;;;;;;;;;8.58;58.67;100628.25;4951269;28;7857;-71
2023/01/10 05:18:27;;;;;;;;;;;;;;;8.57;57.73;100629.94;4988026;28;7229;-71
2023/01/10 05:21:05;;;;;;;;;;;;;;;8.56;57.38;100619.59;4955701;28;7281;-71
2023/01/10 05:23:32;;;;;;;;;;;;;;;8.56;57.58;100617.06;4962148;28;7036;-71
2023/01/10 05:26:12;;;;;;;;;;;;;;;8.54;57.79;100610.97;4963671;28;6864;-71
2023/01/10 05:28:39;;;;;;;;;;;;;;;8.53;58.29;100601.56;4972138;28;7292;-71
2023/01/10 05:31:14;;;;;;;;;;;;;;;8.52;58.29;100608.31;4964173;28;6972;-71
2023/01/10 05:33:47;;;;;;;;;;;;;;;8.52;58.25;100620.22;4966855;28;6901;-71
2023/01/10 05:36:13;;;;;;;;;;;;;;;8.52;57.59;100630.44;4988820;28;6837;-71
2023/01/10 05:38:38;;;;;;;;;;;;;;;8.51;58.65;100641.47;4959669;28;6792;-71
2023/01/10 05:41:04;;;;;;;;;;;;;;;8.50;57.94;100632.88;4975187;28;7067;-71
2023/01/10 05:43:30;;;;;;;;;;;;;;;8.53;57.52;100657.75;4957505;28;6776;-72
2023/01/10 05:45:55;;;;;;;;;;;;;;;8.53;57.58;100653.50;4983807;28;6934;-71
2023/01/10 05:48:23;;;;;;;;;;;;;;;8.55;57.71;100663.84;4961067;28;6780;-71
2023/01/10 05:50:50;;;;;;;;;;;;;;;8.58;58.54;100667.47;4965062;28;6813;-71
2023/01/10 05:53:17;;;;;;;;;;;;;;;8.59;58.56;100664.13;4964745;28;6804;-72
2023/01/10 05:55:50;;;;;;;;;;;;;;;8.64;58.25;100663.50;4963047;28;6812;-71
2023/01/10 05:58:16;;;;;;;;;;;;;;;8.65;57.44;100663.59;4954090;28;6820;-71
2023/01/10 06:00:41;;;;;;;;;;;;;;;8.65;57.98;100676.38;4989846;28;6771;-70
2023/01/10 06:03:07;;;;;;;;;;;;;;;8.67;57.75;100674.78;4959434;28;6844;-72
2023/01/10 06:05:33;;;;;;;;;;;;;;;8.67;58.20;100681.59;4957256;28;7218;-71
2023/01/10 06:07:58;;;;;;;;;;;;;;;8.66;58.00;100678.13;4955415;28;7098;-70
2023/01/10 06:10:24;;;;;;;;;;;;;;;8.63;58.02;100667.72;4955850;28;6984;-71
2023/01/10 06:12:50;;;;;;;;;;;;;;;8.62;58.08;100678.75;4959850;28;7380;-71
2023/01/10 06:15:16;;;;;;;;;;;;;;;8.60;58.31;100675.22;4958878;28;6996;-71
2023/01/10 06:17:43;;;;;;;;;;;;;;;8.57;58.24;100675.91;4958355;28;7007;-71
2023/01/10 06:20:11;;;;;;;;;;;;;;;8.54;57.40;100669.72;4989374;28;11073;-71
2023/01/10 06:22:42;;;;;;;;;;;;;;;8.50;58.49;100683.06;4960734;28;6852;-71
2023/01/10 06:25:12;;;;;;;;;;;;;;;8.47;57.75;100682.09;4969560;28;6796;-71
2023/01/10 06:27:43;;;;;;;;;;;;;;;8.47;57.76;100694.00;4956590;28;7027;-71
2023/01/10 06:30:12;;;;;;;;;;;;;;;8.46;57.90;100695.66;4962664;28;6792;-71
2023/01/10 06:32:39;;;;;;;;;;;;;;;8.44;57.73;100698.91;4979516;28;11255;-71
2023/01/10 06:35:06;;;;;;;;;;;;;;;8.42;57.86;100693.72;4958246;28;7234;-71
2023/01/10 06:37:32;;;;;;;;;;;;;;;8.40;57.89;100697.84;4955217;28;6796;-71
2023/01/10 06:39:57;;;;;;;;;;;;;;;8.40;57.32;100694.41;4955015;28;7440;-71
2023/01/10 06:42:23;;;;;;;;;;;;;;;8.41;58.20;100702.16;4960062;28;6784;-71
2023/01/10 06:44:49;;;;;;;;;;;;;;;8.39;57.75;100701.16;4956759;28;7176;-71
2023/01/10 06:47:14;;;;;;;;;;;;;;;8.39;58.34;100707.97;4954428;28;8102;-70
2023/01/10 06:49:40;;;;;;;;;;;;;;;8.38;57.52;100718.97;4955642;28;6784;-71
2023/01/10 06:52:05;;;;;;;;;;;;;;;8.39;58.28;100725.84;4972295;28;6815;-71
2023/01/10 06:54:31;;;;;;;;;;;;;;;8.38;58.06;100729.19;4954339;28;7089;-71
2023/01/10 06:56:57;;;;;;;;;;;;;;;8.36;57.10;100729.09;4956157;28;6772;-71
2023/01/10 06:59:22;;;;;;;;;;;;;;;8.34;58.19;100734.09;4955366;28;6942;-71
2023/01/10 07:01:48;;;;;;;;;;;;;;;8.33;58.33;100728.91;4952199;28;6925;-71
2023/01/10 07:04:14;;;;;;;;;;;;;;;8.32;58.00;100724.59;4957825;28;6848;-71
2023/01/10 07:06:40;;;;;;;;;;;;;;;8.30;57.41;100732.16;4985414;28;6951;-70
2023/01/10 07:09:07;;;;;;;;;;;;;;;8.30;57.90;100733.81;4956834;28;8283;-71
2023/01/10 07:11:34;;;;;;;;;;;;;;;8.29;58.13;100734.59;4951681;28;7183;-71
2023/01/10 07:14:01;;;;;;;;;;;;;;;8.30;57.51;100736.34;4955757;28;6844;-71
2023/01/10 07:16:27;;;;;;;;;;;;;;;8.29;58.93;100739.69;4953403;28;6800;-72
2023/01/10 07:18:52;;;;;;;;;;;;;;;8.27;57.79;100747.28;4987436;28;7022;-71
2023/01/10 07:21:18;;;;;;;;;;;;;;;8.28;57.84;100753.25;4977542;28;7140;-71
2023/01/10 07:23:50;;;;;;;;;;;;;;;8.27;58.63;100748.94;4976487;28;7213;-72
2023/01/10 07:26:17;;;;;;;;;;;;;;;8.26;58.01;100759.94;4961116;28;6927;-71
2023/01/10 07:28:49;;;;;;;;;;;;;;;8.25;57.83;100763.28;4985047;28;6931;-72
2023/01/10 07:31:21;;;;;;;;;;;;;;;8.25;58.14;100776.06;4961747;28;7011;-71
2023/01/10 07:33:47;;;;;;;;;;;;;;;8.24;57.87;100774.28;4958748;28;6913;-71
2023/01/10 07:36:13;;;;;;;;;;;;;;;8.24;57.20;100779.41;4955672;28;6871;-70
2023/01/10 07:38:38;;;;;;;;;;;;;;;8.22;58.34;100780.97;4975840;28;6926;-71
2023/01/10 07:41:05;;;;;;;;;;;;;;;8.22;57.30;100799.72;4978407;28;6985;-71
2023/01/10 07:43:32;;;;;;;;;;;;;;;8.19;57.67;100797.84;4972797;28;7039;-71
2023/01/10 07:46:03;;;;;;;;;;;;;;;8.17;58.27;100791.78;4983248;28;8060;-72
2023/01/10 07:48:29;;;;;;;;;;;;;;;8.18;57.93;100801.19;4957208;28;7508;-70
2023/01/10 07:51:00;;;;;;;;;;;;;;;8.23;58.75;100795.50;4970741;28;6848;-71
2023/01/10 07:53:27;;;;;;;;;;;;;;;8.22;58.16;100804.84;4954626;28;8499;-71
2023/01/10 07:55:58;;;;;;;;;;;;;;;8.23;58.89;100803.19;4953929;28;6788;-71
2023/01/10 07:58:23;;;;;;;;;;;;;;;8.23;58.34;100810.84;4960266;28;6915;-71
2023/01/10 08:00:49;;;;;;;;;;;;;;;8.24;58.64;100805.81;4973881;28;6796;-70
2023/01/10 08:03:16;;;;;;;;;;;;;;;8.26;58.70;100808.47;4953798;28;8561;-71
2023/01/10 08:05:43;;;;;;;;;;;;;;;8.28;58.55;100815.44;4983800;28;6811;-71
2023/01/10 08:08:11;;;;;;;;;;;;;;;8.29;58.24;100812.09;4971730;28;6961;-71
2023/01/10 08:10:39;;;;;;;;;;;;;;;8.30;58.21;100810.41;4955417;28;7092;-71
2023/01/10 08:13:05;;;;;;;;;;;;;;;8.30;58.15;100821.53;4973801;28;7033;-71
2023/01/10 08:15:30;;;;;;;;;;;;;;;8.33;57.82;100825.97;4954683;28;7408;-71
2023/01/10 08:18:01;;;;;;;;;;;;;;;8.36;58.46;100817.63;4974363;28;7442;-71
2023/01/10 08:20:28;;;;;;;;;;;;;;;8.34;58.03;100818.38;4964355;28;8489;-70
2023/01/10 08:22:57;;;;;;;;;;;;;;;8.36;57.75;100812.50;4956474;28;6955;-71
2023/01/10 08:25:23;;;;;;;;;;;;;;;8.36;58.10;100817.63;4981682;28;6800;-71
2023/01/10 08:27:49;;;;;;;;;;;;;;;8.37;58.56;100820.25;4954635;28;7812;-71
2023/01/10 08:30:15;;;;;;;;;;;;;;;8.38;57.68;100814.34;4955268;28;6936;-71
2023/01/10 08:32:40;;;;;;;;;;;;;;;8.38;57.75;100821.16;4961115;28;6784;-70
2023/01/10 08:35:06;;;;;;;;;;;;;;;8.41;58.58;100817.13;4985565;28;6927;-71
2023/01/10 08:37:32;;;;;;;;;;;;;;;8.42;58.76;100813.78;4952908;28;6952;-71
2023/01/10 08:39:57;;;;;;;;;;;;;;;8.43;58.93;100818.09;4952131;28;6848;-71
2023/01/10 08:42:23;;;;;;;;;;;;;;;8.45;57.58;100813.97;4953224;28;6776;-71
2023/01/10 08:44:49;;;;;;;;;;;;;;;8.47;58.85;100814.94;4980068;28;6792;-71
2023/01/10 08:47:14;;;;;;;;;;;;;;;8.49;58.27;100817.59;4955494;28;6971;-70
2023/01/10 08:49:40;;;;;;;;;;;;;;;8.49;57.69;100815.03;4955434;28;6959;-71
2023/01/10 08:52:05;;;;;;;;;;;;;;;8.53;57.59;100816.16;4986561;28;6791;-71
2023/01/10 08:54:32;;;;;;;;;;;;;;;8.55;57.73;100825.69;4963111;28;7039;-70
2023/01/10 08:56:58;;;;;;;;;;;;;;;8.61;58.33;100828.59;4951220;28;7032;-70
2023/01/10 08:59:24;;;;;;;;;;;;;;;8.66;57.93;100828.91;4956073;28;6796;-70
2023/01/10 09:01:49;;;;;;;;;;;;;;;8.70;58.13;100832.53;4956295;28;7998;-71
2023/01/10 09:04:16;;;;;;;;;;;;;;;8.75;58.72;100836.28;4956164;28;6812;-70
2023/01/10 09:06:41;;;;;;;;;;;;;;;8.83;58.93;100834.19;4961066;28;6941;-70
2023/01/10 09:09:08;;;;;;;;;;;;;;;8.92;58.70;100836.41;4954793;28;7297;-71
2023/01/10 09:11:34;;;;;;;;;;;;;;;8.99;57.73;100836.91;4978870;28;6840;-71
2023/01/10 09:14:00;;;;;;;;;;;;;;;9.06;57.89;100837.25;4964018;28;7394;-70
2023/01/10 09:16:25;;;;;;;;;;;;;;;9.13;57.64;100844.53;4978083;28;6768;-71
2023/01/10 09:18:51;;;;;;;;;;;;;;;9.21;58.34;100830.53;4971020;28;7341;-70
2023/01/10 09:21:17;;;;;;;;;;;;;;;9.28;58.27;100825.00;4987102;28;7141;-70
2023/01/10 09:23:43;;;;;;;;;;;;;;;9.36;57.57;100834.78;4978724;28;6948;-71
2023/01/10 09:26:09;;;;;;;;;;;;;;;9.46;57.45;100839.66;4948731;28;6792;-71
2023/01/10 09:28:34;;;;;;;;;;;;;;;9.52;57.63;100827.25;4972828;28;6987;-71
2023/01/10 09:31:03;;;;;;;;;;;;;;;9.59;57.96;100837.06;4975334;28;6828;-70
2023/01/10 09:33:29;;;;;;;;;;;;;;;9.66;57.48;100828.06;4959961;28;6804;-70
2023/01/10 09:35:57;;;;;;;;;;;;;;;9.72;57.42;100841.22;4957319;28;6930;-70
2023/01/10 09:38:24;;;;;;;;;;;;;;;9.81;56.87;100842.56;4942732;28;7198;-70
2023/01/10 09:41:39;;;;;;;;;;;;;;;9.89;57.18;100837.88;4964880;28;6819;-70
2023/01/10 09:44:36;;;;;;;;;;;;;;;9.95;56.95;100836.53;4959333;28;7221;-71
2023/01/10 09:47:32;;;;;;;;;;;;;;;10.08;56.45;100830.44;4965935;28;7081;-70
2023/01/10 09:50:18;;;;;;;;;;;;;;;10.16;56.80;100836.00;4978482;28;6800;-71
2023/01/10 09:52:52;;;;;;;;;;;;;;;10.31;56.48;100829.97;4959769;28;7574;-71
2023/01/10 09:55:29;;;;;;;;;;;;;;;10.44;56.78;100821.34;4985619;28;6811;-71
2023/01/10 09:58:16;;;;;;;;;;;;;;;10.56;56.63;100819.44;4962023;28;6796;-70
2023/01/10 10:00:53;;;;;;;;;;;;;;;10.73;56.02;100810.09;4985186;28;6812;-70
2023/01/10 10:04:00;;;;;;;;;;;;;;;10.88;55.82;100817.72;4976588;28;6808;-70
2023/01/10 10:06:25;;;;;;;;;;;;;;;11.00;55.50;100821.72;4938199;28;6999;-70
2023/01/10 10:08:52;;;;;;;;;;;;;;;11.11;55.40;100816.38;4961715;28;7213;-71
2023/01/10 10:11:37;;;;;;;;;;;;;;;11.22;55.16;100821.19;4959172;28;6967;-70
2023/01/10 10:14:22;;;;;;;;;;;;;;;11.34;55.00;100819.25;4989943;28;7012;-70
2023/01/10 10:17:26;;;;;;;;;;;;;;;11.39;54.94;100820.38;4962560;28;7270;-71
2023/01/10 10:20:13;;;;;;;;;;;;;;;11.48;54.85;100817.38;4979236;28;6819;-70
2023/01/10 10:23:39;;;;;;;;;;;;;;;11.56;54.09;100804.97;4955584;28;7313;-71
2023/01/10 10:26:33;;;;;;;;;;;;;;;11.72;53.69;100813.41;4960197;28;7027;-70
2023/01/10 10:29:24;;;;;;;;;;;;;;;11.81;53.46;100809.63;4953506;28;6817;-70
2023/01/10 10:32:17;;;;;;;;;;;;;;;11.88;53.79;100809.91;4988111;28;7179;-70
2023/01/10 10:34:58;;;;;;;;;;;;;;;11.92;53.19;100799.88;4962530;28;6804;-70
2023/01/10 10:37:39;;;;;;;;;;;;;;;11.97;53.49;100787.25;4986255;28;7302;-71
2023/01/10 10:40:13;;;;;;;;;;;;;;;12.03;53.18;100790.16;4987055;28;7724;-70
2023/01/10 10:42:52;;;;;;;;;;;;;;;12.07;52.99;100778.34;4956649;28;7046;-71
2023/01/10 10:45:39;;;;;;;;;;;;;;;12.14;52.84;100779.50;4977820;28;7151;-70
2023/01/10 10:48:22;;;;;;;;;;;;;;;12.17;52.37;100777.97;4964458;28;6999;-71
2023/01/10 10:51:15;;;;;;;;;;;;;;;12.17;51.85;100756.56;4957529;28;7025;-70
2023/01/10 10:53:41;;;;;;;;;;;;;;;12.11;51.72;100769.97;4960887;28;6815;-70
2023/01/10 10:56:14;;;;;;;;;;;;;;;12.09;51.69;100766.44;4973937;28;7389;-71
2023/01/10 10:58:44;;;;;;;;;;;;;;;12.11;51.87;100766.53;4961105;28;7266;-70
2023/01/10 11:01:15;;;;;;;;;;;;;;;12.17;51.92;100764.25;4963449;28;6792;-71
2023/01/10 11:04:01;;;;;;;;;;;;;;;12.24;51.75;100750.88;4986635;28;7624;-70
2023/01/10 11:06:30;;;;;;;;;;;;;;;12.28;51.80;100754.47;4987021;28;7419;-72
2023/01/10 11:09:03;;;;;;;;;;;;;;;12.33;51.43;100751.28;4985978;28;7071;-70
2023/01/10 11:11:45;;;;;;;;;;;;;;;12.36;51.37;100746.31;4987966;28;6866;-70
2023/01/10 11:14:12;;;;;;;;;;;;;;;12.39;51.49;100747.25;4982377;28;6804;-70
2023/01/10 11:16:39;;;;;;;;;;;;;;;12.46;51.11;100739.91;4958520;28;7003;-71
2023/01/10 11:19:20;;;;;;;;;;;;;;;12.52;51.82;100736.72;4972796;28;7054;-71
2023/01/10 11:22:01;;;;;;;;;;;;;;;12.60;51.80;100737.94;4979795;28;7013;-70
2023/01/10 11:24:33;;;;;;;;;;;;;;;12.67;51.57;100744.25;4960352;28;7113;-71
2023/01/10 11:27:14;;;;;;;;;;;;;;;12.76;50.90;100742.09;4979574;28;7039;-70
2023/01/10 11:29:49;;;;;;;;;;;;;;;12.88;51.04;100725.44;4960183;28;6867;-70
2023/01/10 11:32:38;;;;;;;;;;;;;;;13.02;51.40;100734.66;4956912;28;7191;-71
2023/01/10 11:35:20;;;;;;;;;;;;;;;13.12;51.25;100727.31;4959351;28;6988;-70
2023/01/10 11:37:58;;;;;;;;;;;;;;;13.25;49.98;100727.00;4959189;28;6804;-71
2023/01/10 11:40:30;;;;;;;;;;;;;;;13.34;50.56;100729.97;4958360;28;7313;-70
2023/01/10 11:42:58;;;;;;;;;;;;;;;13.42;50.63;100725.16;4959368;28;6950;-70
2023/01/10 11:45:35;;;;;;;;;;;;;;;13.46;49.64;100721.91;4955820;28;7042;-70
2023/01/10 11:48:04;;;;;;;;;;;;;;;13.45;50.35;100715.03;4972740;28;7053;-71
2023/01/10 11:50:38;;;;;;;;;;;;;;;13.45;49.42;100715.03;4961900;28;6878;-70
2023/01/10 11:53:20;;;;;;;;;;;;;;;13.46;49.98;100711.63;4959432;28;7151;-71
2023/01/10 11:55:47;;;;;;;;;;;;;;;13.42;49.29;100714.88;4976987;28;6887;-70
2023/01/10 11:58:14;;;;;;;;;;;;;;;13.40;49.35;100701.03;4991217;28;7933;-71
2023/01/10 12:00:47;;;;;;;;;;;;;;;13.37;49.91;100710.31;4959574;28;6788;-70
2023/01/10 12:03:29;;;;;;;;;;;;;;;13.39;50.16;100703.56;4960040;28;6804;-70
2023/01/10 12:06:16;;;;;;;;;;;;;;;13.43;49.08;100706.31;4960160;28;7380;-71
2023/01/10 12:08:43;;;;;;;;;;;;;;;13.41;49.88;100692.47;4982482;28;6943;-70
2023/01/10 12:11:12;;;;;;;;;;;;;;;13.42;48.90;100696.84;4984774;28;7269;-70
2023/01/10 12:13:50;;;;;;;;;;;;;;;13.46;49.48;100700.44;4950556;28;7064;-70
2023/01/10 12:16:18;;;;;;;;;;;;;;;13.44;48.80;100695.25;4954979;28;6887;-71
2023/01/10 12:18:45;;;;;;;;;;;;;;;13.45;48.92;100691.84;4957990;28;6955;-71
2023/01/10 12:21:16;;;;;;;;;;;;;;;13.43;48.79;100685.72;4975292;28;7200;-70
2023/01/10 12:23:45;;;;;;;;;;;;;;;13.41;49.36;100686.47;4985869;28;6804;-70
2023/01/10 12:26:12;;;;;;;;;;;;;;;13.39;49.52;100686.41;4940336;28;8443;-72
2023/01/10 12:28:56;;;;;;;;;;;;;;;13.33;49.65;100683.59;4954161;28;8437;-71
2023/01/10 12:31:22;;;;;;;;;;;;;;;13.26;48.58;100682.44;4970193;28;7355;-70
2023/01/10 12:34:06;;;;;;;;;;;;;;;13.21;49.03;100676.25;4954207;28;7245;-71
2023/01/10 12:36:58;;;;;;;;;;;;;;;13.21;49.01;100673.66;4961115;28;7003;-70
2023/01/10 12:39:33;;;;;;;;;;;;;;;13.20;48.81;100670.19;4958397;28;7196;-70
2023/01/10 12:45:04;;;;;;;;;;;;;;;13.19;48.76;100671.00;4958531;28;6785;-71
2023/01/10 12:48:05;;;;;;;;;;;;;;;13.18;49.02;100665.78;4961832;28;7011;-71
2023/01/10 12:50:43;;;;;;;;;;;;;;;13.11;49.29;100674.97;4964107;28;7215;-71
2023/01/10 12:53:39;;;;;;;;;;;;;;;13.06;48.91;100663.59;4961490;28;7132;-71
2023/01/10 12:56:13;;;;;;;;;;;;;;;13.02;48.10;100659.13;4958827;28;6864;-71
2023/01/10 12:58:48;;;;;;;;;;;;;;;13.00;48.84;100656.50;4964359;28;6975;-71
2023/01/10 13:01:23;;;;;;;;;;;;;;;12.98;48.10;100659.81;4964190;28;7367;-71
2023/01/10 13:04:04;;;;;;;;;;;;;;;12.90;48.54;100647.50;4980230;28;7170;-71
2023/01/10 13:06:36;;;;;;;;;;;;;;;12.83;48.60;100630.06;4943791;28;7184;-70
2023/01/10 13:09:20;;;;;;;;;;;;;;;12.77;48.54;100625.53;4961403;28;6876;-71
2023/01/10 13:12:32;;;;;;;;;;;;;;;12.73;48.04;100622.75;4965370;28;6963;-70
2023/01/10 13:15:31;;;;;;;;;;;;;;;12.72;49.16;100621.91;4954169;28;6991;-70
2023/01/10 13:18:16;;;;;;;;;;;;;;;12.67;48.72;100612.22;4960930;28;7024;-70
2023/01/10 13:20:43;;;;;;;;;;;;;;;12.64;47.99;100613.84;4959822;28;6808;-70
2023/01/10 13:23:25;;;;;;;;;;;;;;;12.62;48.00;100615.47;4989024;28;6796;-70
2023/01/10 13:26:07;;;;;;;;;;;;;;;12.62;48.92;100607.75;4995389;28;6995;-71
2023/01/10 13:28:38;;;;;;;;;;;;;;;12.64;48.39;100606.13;4979393;28;6812;-70